sensor_id;sensor_type;location;lat;lon;timestamp;temperature;humidity
36586;DHT22;22591;48.314;11.562;2023-05-10T00:00:07;13.90;99.90
36586;DHT22;22591;48.314;11.562;2023-05-10T00:02:34;13.90;99.90
36586;DHT22;22591;48.314;11.562;2023-05-10T00:05:00;13.90;99.90
36586;DHT22;22591;48.314;11.562;2023-05-10T00:07:26;13.90;99.90
36586;DHT22;22591;48.314;11.562;2023-05-10T00:09:51;13.90;99.90
36586;DHT22;22591;48.314;11.562;2023-05-10T00:12:17;13.80;99.90
36586;DHT22;22591;48.314;11.562;2023-05-10T00:14:42;13.90;99.90
36586;DHT22;22591;48.314;11.562;2023-05-10T00:17:08;13.90;99.90
36586;DHT22;22591;48.314;11.562;2023-05-10T00:19:33;13.90;99.90
36586;DHT22;22591;48.314;11.562;2023-05-10T00:21:59;13.90;99.90
36586;DHT22;22591;48.314;11.562;2023-05-10T00:24:24;13.90;99.90
36586;DHT22;22591;48.314;11.562;2023-05-10T00:26:50;13.80;99.90
36586;DHT22;22591;48.314;11.562;2023-05-10T00:29:15;13.90;99.90
36586;DHT22;22591;48.314;11.562;2023-05-10T00:31:41;13.80;99.90
36586;DHT22;22591;48.314;11.562;2023-05-10T00:34:07;13.80;99.90
36586;DHT22;22591;48.314;11.562;2023-05-10T00:36:32;13.80;99.90
36586;DHT22;22591;48.314;11.562;2023-05-10T00:38:58;13.90;99.90
36586;DHT22;22591;48.314;11.562;2023-05-10T00:41:23;13.90;99.90
36586;DHT22;22591;48.314;11.562;2023-05-10T00:43:49;13.90;99.90
36586;DHT22;22591;48.314;11.562;2023-05-10T00:46:15;13.80;99.90
36586;DHT22;22591;48.314;11.562;2023-05-10T00:48:41;13.80;99.90
36586;DHT22;22591;48.314;11.562;2023-05-10T00:51:07;13.80;99.90
36586;DHT22;22591;48.314;11.562;2023-05-10T00:53:34;13.80;99.90
36586;DHT22;22591;48.314;11.562;2023-05-10T00:56:00;13.80;99.90
36586;DHT22;22591;48.314;11.562;2023-05-10T00:58:27;13.80;99.90
36586;DHT22;22591;48.314;11.562;2023-05-10T01:00:55;13.80;99.90
36586;DHT22;22591;48.314;11.562;2023-05-10T01:03:22;13.70;99.90
36586;DHT22;22591;48.314;11.562;2023-05-10T01:05:47;13.70;99.90
36586;DHT22;22591;48.314;11.562;2023-05-10T01:08:13;13.70;99.90
36586;DHT22;22591;48.314;11.562;2023-05-10T01:10:39;13.70;99.90
36586;DHT22;22591;48.314;11.562;2023-05-10T01:13:04;13.70;99.90
36586;DHT22;22591;48.314;11.562;2023-05-10T01:15:31;13.70;99.90
36586;DHT22;22591;48.314;11.562;2023-05-10T01:17:56;13.70;99.90
36586;DHT22;22591;48.314;11.562;2023-05-10T01:20:23;13.70;99.90
36586;DHT22;22591;48.314;11.562;2023-05-10T01:29:40;13.60;99.90
36586;DHT22;22591;48.314;11.562;2023-05-10T01:32:20;13.60;99.90
36586;DHT22;22591;48.314;11.562;2023-05-10T01:34:54;13.60;99.90
36586;DHT22;22591;48.314;11.562;2023-05-10T01:37:25;13.60;99.90
36586;DHT22;22591;48.314;11.562;2023-05-10T01:40:00;13.60;99.90
36586;DHT22;22591;48.314;11.562;2023-05-10T01:42:36;13.60;99.90
36586;DHT22;22591;48.314;11.562;2023-05-10T01:48:10;13.50;99.90
36586;DHT22;22591;48.314;11.562;2023-05-10T01:50:38;13.50;99.90
36586;DHT22;22591;48.314;11.562;2023-05-10T01:53:07;13.50;99.90
36586;DHT22;22591;48.314;11.562;2023-05-10T01:55:43;13.40;99.90
36586;DHT22;22591;48.314;11.562;2023-05-10T01:58:14;13.40;99.90
36586;DHT22;22591;48.314;11.562;2023-05-10T02:00:43;13.40;99.90
36586;DHT22;22591;48.314;11.562;2023-05-10T02:03:10;13.40;99.90
36586;DHT22;22591;48.314;11.562;2023-05-10T02:05:37;13.40;99.90
36586;DHT22;22591;48.314;11.562;2023-05-10T02:08:06;13.40;99.90
36586;DHT22;22591;48.314;11.562;2023-05-10T02:10:34;13.40;99.90
36586;DHT22;22591;48.314;11.562;2023-05-10T02:13:01;13.40;99.90
36586;DHT22;22591;48.314;11.562;2023-05-10T02:15:28;13.50;99.90
36586;DHT22;22591;48.314;11.562;2023-05-10T02:17:55;13.50;99.90
36586;DHT22;22591;48.314;11.562;2023-05-10T02:20:22;13.50;99.90
36586;DHT22;22591;48.314;11.562;2023-05-10T02:22:50;13.40;99.90
36586;DHT22;22591;48.314;11.562;2023-05-10T02:25:18;13.40;99.90
36586;DHT22;22591;48.314;11.562;2023-05-10T02:27:46;13.50;99.90
36586;DHT22;22591;48.314;11.562;2023-05-10T02:30:12;13.50;99.90
36586;DHT22;22591;48.314;11.562;2023-05-10T02:32:39;13.50;99.90
36586;DHT22;22591;48.314;11.562;2023-05-10T02:35:05;13.50;99.90
36586;DHT22;22591;48.314;11.562;2023-05-10T02:37:31;13.50;99.90
36586;DHT22;22591;48.314;11.562;2023-05-10T02:39:58;13.50;99.90
36586;DHT22;22591;48.314;11.562;2023-05-10T02:42:28;13.40;99.90
36586;DHT22;22591;48.314;11.562;2023-05-10T02:44:59;13.50;99.90
36586;DHT22;22591;48.314;11.562;2023-05-10T02:47:25;13.50;99.90
36586;DHT22;22591;48.314;11.562;2023-05-10T02:49:51;13.50;99.90
36586;DHT22;22591;48.314;11.562;2023-05-10T02:52:22;13.50;99.90
36586;DHT22;22591;48.314;11.562;2023-05-10T02:54:50;13.50;99.90
36586;DHT22;22591;48.314;11.562;2023-05-10T02:57:26;13.50;99.90
36586;DHT22;22591;48.314;11.562;2023-05-10T02:59:52;13.40;99.90
36586;DHT22;22591;48.314;11.562;2023-05-10T03:02:18;13.40;99.90
36586;DHT22;22591;48.314;11.562;2023-05-10T03:04:44;13.40;99.90
36586;DHT22;22591;48.314;11.562;2023-05-10T03:07:09;13.40;99.90
36586;DHT22;22591;48.314;11.562;2023-05-10T03:09:35;13.40;99.90
36586;DHT22;22591;48.314;11.562;2023-05-10T03:20:16;13.30;99.90
36586;DHT22;22591;48.314;11.562;2023-05-10T03:22:49;13.30;99.90
36586;DHT22;22591;48.314;11.562;2023-05-10T03:25:16;13.20;99.90
36586;DHT22;22591;48.314;11.562;2023-05-10T03:27:44;13.20;99.90
36586;DHT22;22591;48.314;11.562;2023-05-10T03:30:11;13.20;99.90
36586;DHT22;22591;48.314;11.562;2023-05-10T03:32:37;13.30;99.90
36586;DHT22;22591;48.314;11.562;2023-05-10T03:35:09;13.30;99.90
36586;DHT22;22591;48.314;11.562;2023-05-10T03:37:35;13.30;99.90
36586;DHT22;22591;48.314;11.562;2023-05-10T03:40:01;13.30;99.90
36586;DHT22;22591;48.314;11.562;2023-05-10T03:42:27;13.30;99.90
36586;DHT22;22591;48.314;11.562;2023-05-10T03:44:53;13.30;99.90
36586;DHT22;22591;48.314;11.562;2023-05-10T03:47:18;13.30;99.90
36586;DHT22;22591;48.314;11.562;2023-05-10T03:49:44;13.30;99.90
36586;DHT22;22591;48.314;11.562;2023-05-10T03:52:09;13.30;99.90
36586;DHT22;22591;48.314;11.562;2023-05-10T03:54:35;13.40;99.90
36586;DHT22;22591;48.314;11.562;2023-05-10T03:57:00;13.30;99.90
36586;DHT22;22591;48.314;11.562;2023-05-10T03:59:26;13.30;99.90
36586;DHT22;22591;48.314;11.562;2023-05-10T04:01:52;13.30;99.90
36586;DHT22;22591;48.314;11.562;2023-05-10T04:04:17;13.30;99.90
36586;DHT22;22591;48.314;11.562;2023-05-10T04:06:44;13.40;99.90
36586;DHT22;22591;48.314;11.562;2023-05-10T04:09:10;13.40;99.90
36586;DHT22;22591;48.314;11.562;2023-05-10T04:11:36;13.30;99.90
36586;DHT22;22591;48.314;11.562;2023-05-10T04:14:02;13.40;99.90
36586;DHT22;22591;48.314;11.562;2023-05-10T04:16:27;13.40;99.90
36586;DHT22;22591;48.314;11.562;2023-05-10T04:18:53;13.50;99.90
36586;DHT22;22591;48.314;11.562;2023-05-10T04:21:18;13.50;99.90
36586;DHT22;22591;48.314;11.562;2023-05-10T04:23:44;13.50;99.90
36586;DHT22;22591;48.314;11.562;2023-05-10T04:26:09;13.50;99.90
36586;DHT22;22591;48.314;11.562;2023-05-10T04:28:35;13.60;99.90
36586;DHT22;22591;48.314;11.562;2023-05-10T04:31:08;13.60;99.90
36586;DHT22;22591;48.314;11.562;2023-05-10T04:33:33;13.70;99.90
36586;DHT22;22591;48.314;11.562;2023-05-10T04:35:59;13.70;99.90
36586;DHT22;22591;48.314;11.562;2023-05-10T04:38:26;13.80;99.90
36586;DHT22;22591;48.314;11.562;2023-05-10T04:40:52;13.80;99.90
36586;DHT22;22591;48.314;11.562;2023-05-10T04:43:18;13.80;99.90
36586;DHT22;22591;48.314;11.562;2023-05-10T04:45:43;13.80;99.90
36586;DHT22;22591;48.314;11.562;2023-05-10T04:48:09;13.90;99.90
36586;DHT22;22591;48.314;11.562;2023-05-10T04:50:34;13.80;99.90
36586;DHT22;22591;48.314;11.562;2023-05-10T04:53:00;13.80;99.90
36586;DHT22;22591;48.314;11.562;2023-05-10T04:55:25;13.70;99.90
36586;DHT22;22591;48.314;11.562;2023-05-10T04:57:52;13.70;99.90
36586;DHT22;22591;48.314;11.562;2023-05-10T05:00:18;13.70;99.90
36586;DHT22;22591;48.314;11.562;2023-05-10T05:02:44;13.70;99.90
36586;DHT22;22591;48.314;11.562;2023-05-10T05:05:11;13.70;99.90
36586;DHT22;22591;48.314;11.562;2023-05-10T05:07:37;13.70;99.90
36586;DHT22;22591;48.314;11.562;2023-05-10T05:10:06;13.70;99.90
36586;DHT22;22591;48.314;11.562;2023-05-10T05:12:32;13.80;99.90
36586;DHT22;22591;48.314;11.562;2023-05-10T05:14:58;13.80;99.90
36586;DHT22;22591;48.314;11.562;2023-05-10T05:17:23;13.70;99.90
36586;DHT22;22591;48.314;11.562;2023-05-10T05:19:49;13.80;99.90
36586;DHT22;22591;48.314;11.562;2023-05-10T05:22:14;13.90;99.90
36586;DHT22;22591;48.314;11.562;2023-05-10T05:24:40;13.90;99.90
36586;DHT22;22591;48.314;11.562;2023-05-10T05:27:06;13.90;99.90
36586;DHT22;22591;48.314;11.562;2023-05-10T05:29:31;13.90;99.90
36586;DHT22;22591;48.314;11.562;2023-05-10T05:31:57;13.90;99.90
36586;DHT22;22591;48.314;11.562;2023-05-10T05:34:23;13.80;99.90
36586;DHT22;22591;48.314;11.562;2023-05-10T05:36:49;13.80;99.90
36586;DHT22;22591;48.314;11.562;2023-05-10T05:39:15;13.70;99.90
36586;DHT22;22591;48.314;11.562;2023-05-10T05:41:40;13.80;99.90
36586;DHT22;22591;48.314;11.562;2023-05-10T05:44:06;13.70;99.90
36586;DHT22;22591;48.314;11.562;2023-05-10T05:46:32;13.60;99.90
36586;DHT22;22591;48.314;11.562;2023-05-10T05:48:57;13.70;99.90
36586;DHT22;22591;48.314;11.562;2023-05-10T05:51:23;13.80;99.90
36586;DHT22;22591;48.314;11.562;2023-05-10T05:53:48;13.80;99.90
36586;DHT22;22591;48.314;11.562;2023-05-10T05:56:14;13.90;99.90
36586;DHT22;22591;48.314;11.562;2023-05-10T05:58:39;13.80;99.90
36586;DHT22;22591;48.314;11.562;2023-05-10T06:01:05;13.80;99.90
36586;DHT22;22591;48.314;11.562;2023-05-10T06:03:30;14.00;99.90
36586;DHT22;22591;48.314;11.562;2023-05-10T06:05:56;13.90;99.90
36586;DHT22;22591;48.314;11.562;2023-05-10T06:08:21;13.90;99.90
36586;DHT22;22591;48.314;11.562;2023-05-10T06:10:47;14.10;99.90
36586;DHT22;22591;48.314;11.562;2023-05-10T06:13:13;14.20;99.90
36586;DHT22;22591;48.314;11.562;2023-05-10T06:15:39;14.20;99.90
36586;DHT22;22591;48.314;11.562;2023-05-10T06:18:04;14.10;99.90
36586;DHT22;22591;48.314;11.562;2023-05-10T06:20:31;14.20;99.90
36586;DHT22;22591;48.314;11.562;2023-05-10T06:22:57;14.30;99.90
36586;DHT22;22591;48.314;11.562;2023-05-10T06:25:23;14.40;99.90
36586;DHT22;22591;48.314;11.562;2023-05-10T06:27:48;14.50;99.90
36586;DHT22;22591;48.314;11.562;2023-05-10T06:30:14;14.60;99.90
36586;DHT22;22591;48.314;11.562;2023-05-10T06:32:41;14.60;99.90
36586;DHT22;22591;48.314;11.562;2023-05-10T06:35:07;14.60;99.90
36586;DHT22;22591;48.314;11.562;2023-05-10T06:37:33;14.70;99.90
36586;DHT22;22591;48.314;11.562;2023-05-10T06:39:59;14.80;99.90
36586;DHT22;22591;48.314;11.562;2023-05-10T06:42:25;15.10;99.90
36586;DHT22;22591;48.314;11.562;2023-05-10T06:44:52;15.20;99.90
36586;DHT22;22591;48.314;11.562;2023-05-10T06:47:17;15.20;99.90
36586;DHT22;22591;48.314;11.562;2023-05-10T06:49:43;15.40;99.90
36586;DHT22;22591;48.314;11.562;2023-05-10T06:52:08;15.50;99.90
36586;DHT22;22591;48.314;11.562;2023-05-10T06:54:34;15.60;99.90
36586;DHT22;22591;48.314;11.562;2023-05-10T06:56:59;15.90;99.90
36586;DHT22;22591;48.314;11.562;2023-05-10T06:59:25;15.70;99.90
36586;DHT22;22591;48.314;11.562;2023-05-10T07:01:50;15.60;99.90
36586;DHT22;22591;48.314;11.562;2023-05-10T07:04:16;15.40;99.90
36586;DHT22;22591;48.314;11.562;2023-05-10T07:06:43;15.40;99.90
36586;DHT22;22591;48.314;11.562;2023-05-10T07:09:08;15.60;99.90
36586;DHT22;22591;48.314;11.562;2023-05-10T07:11:34;15.70;99.90
36586;DHT22;22591;48.314;11.562;2023-05-10T07:14:00;15.60;99.90
36586;DHT22;22591;48.314;11.562;2023-05-10T07:16:26;15.70;99.90
36586;DHT22;22591;48.314;11.562;2023-05-10T07:18:52;15.80;99.90
36586;DHT22;22591;48.314;11.562;2023-05-10T07:21:18;15.70;99.90
36586;DHT22;22591;48.314;11.562;2023-05-10T07:23:44;15.70;99.90
36586;DHT22;22591;48.314;11.562;2023-05-10T07:26:09;15.80;99.90
36586;DHT22;22591;48.314;11.562;2023-05-10T07:28:36;16.10;99.90
36586;DHT22;22591;48.314;11.562;2023-05-10T07:31:03;16.20;99.90
36586;DHT22;22591;48.314;11.562;2023-05-10T07:33:28;16.60;99.90
36586;DHT22;22591;48.314;11.562;2023-05-10T07:35:54;17.00;99.90
36586;DHT22;22591;48.314;11.562;2023-05-10T07:38:19;17.40;99.90
36586;DHT22;22591;48.314;11.562;2023-05-10T07:40:45;17.70;99.90
36586;DHT22;22591;48.314;11.562;2023-05-10T07:43:10;17.60;99.90
36586;DHT22;22591;48.314;11.562;2023-05-10T07:45:36;17.40;99.90
36586;DHT22;22591;48.314;11.562;2023-05-10T07:48:01;17.10;99.90
36586;DHT22;22591;48.314;11.562;2023-05-10T07:50:27;16.70;99.90
36586;DHT22;22591;48.314;11.562;2023-05-10T07:52:53;16.60;99.90
36586;DHT22;22591;48.314;11.562;2023-05-10T07:55:18;16.20;99.90
36586;DHT22;22591;48.314;11.562;2023-05-10T07:57:45;16.10;99.90
36586;DHT22;22591;48.314;11.562;2023-05-10T08:00:13;16.20;99.90
36586;DHT22;22591;48.314;11.562;2023-05-10T08:02:41;16.00;99.90
36586;DHT22;22591;48.314;11.562;2023-05-10T08:05:07;15.80;99.90
36586;DHT22;22591;48.314;11.562;2023-05-10T08:07:33;15.80;99.90
36586;DHT22;22591;48.314;11.562;2023-05-10T08:09:59;15.60;99.90
36586;DHT22;22591;48.314;11.562;2023-05-10T08:12:24;15.60;99.90
36586;DHT22;22591;48.314;11.562;2023-05-10T08:14:50;15.70;99.90
36586;DHT22;22591;48.314;11.562;2023-05-10T08:17:15;15.90;99.90
36586;DHT22;22591;48.314;11.562;2023-05-10T08:19:41;16.30;99.90
36586;DHT22;22591;48.314;11.562;2023-05-10T08:22:06;16.80;99.90
36586;DHT22;22591;48.314;11.562;2023-05-10T08:24:32;17.30;99.90
36586;DHT22;22591;48.314;11.562;2023-05-10T08:26:59;17.80;99.90
36586;DHT22;22591;48.314;11.562;2023-05-10T08:29:26;18.00;99.90
36586;DHT22;22591;48.314;11.562;2023-05-10T08:31:51;18.00;99.90
36586;DHT22;22591;48.314;11.562;2023-05-10T08:34:17;17.90;99.90
36586;DHT22;22591;48.314;11.562;2023-05-10T08:36:42;17.40;99.90
36586;DHT22;22591;48.314;11.562;2023-05-10T08:39:08;17.20;99.90
36586;DHT22;22591;48.314;11.562;2023-05-10T08:41:34;17.00;99.90
36586;DHT22;22591;48.314;11.562;2023-05-10T08:44:04;16.90;99.90
36586;DHT22;22591;48.314;11.562;2023-05-10T08:46:31;16.60;99.90
36586;DHT22;22591;48.314;11.562;2023-05-10T08:49:01;16.80;99.90
36586;DHT22;22591;48.314;11.562;2023-05-10T08:51:27;17.00;99.90
36586;DHT22;22591;48.314;11.562;2023-05-10T08:53:54;17.60;99.90
36586;DHT22;22591;48.314;11.562;2023-05-10T08:56:20;18.20;99.90
36586;DHT22;22591;48.314;11.562;2023-05-10T08:58:46;18.30;99.90
36586;DHT22;22591;48.314;11.562;2023-05-10T09:01:13;18.10;99.90
36586;DHT22;22591;48.314;11.562;2023-05-10T09:03:40;17.90;99.90
36586;DHT22;22591;48.314;11.562;2023-05-10T09:06:06;17.80;99.90
36586;DHT22;22591;48.314;11.562;2023-05-10T09:08:32;17.60;99.90
36586;DHT22;22591;48.314;11.562;2023-05-10T09:10:58;17.70;99.90
36586;DHT22;22591;48.314;11.562;2023-05-10T09:13:23;17.70;99.90
36586;DHT22;22591;48.314;11.562;2023-05-10T09:15:50;17.70;99.90
36586;DHT22;22591;48.314;11.562;2023-05-10T09:18:16;17.90;99.90
36586;DHT22;22591;48.314;11.562;2023-05-10T09:20:42;17.90;99.90
36586;DHT22;22591;48.314;11.562;2023-05-10T09:23:07;17.90;99.90
36586;DHT22;22591;48.314;11.562;2023-05-10T09:25:33;17.80;99.90
36586;DHT22;22591;48.314;11.562;2023-05-10T09:27:59;17.90;99.90
36586;DHT22;22591;48.314;11.562;2023-05-10T09:30:29;18.60;99.90
36586;DHT22;22591;48.314;11.562;2023-05-10T09:32:59;18.70;99.90
36586;DHT22;22591;48.314;11.562;2023-05-10T09:35:30;18.70;99.90
36586;DHT22;22591;48.314;11.562;2023-05-10T09:37:59;18.70;99.90
36586;DHT22;22591;48.314;11.562;2023-05-10T09:40:27;18.70;99.90
36586;DHT22;22591;48.314;11.562;2023-05-10T09:45:22;18.30;99.90
36586;DHT22;22591;48.314;11.562;2023-05-10T09:47:48;17.80;99.90
36586;DHT22;22591;48.314;11.562;2023-05-10T09:50:13;17.20;99.90
36586;DHT22;22591;48.314;11.562;2023-05-10T09:52:52;16.50;99.90
36586;DHT22;22591;48.314;11.562;2023-05-10T09:55:20;15.80;99.90
36586;DHT22;22591;48.314;11.562;2023-05-10T09:57:47;15.10;99.90
36586;DHT22;22591;48.314;11.562;2023-05-10T10:00:17;14.90;99.90
36586;DHT22;22591;48.314;11.562;2023-05-10T10:02:48;14.70;99.90
36586;DHT22;22591;48.314;11.562;2023-05-10T10:05:19;14.70;99.90
36586;DHT22;22591;48.314;11.562;2023-05-10T10:07:44;14.80;99.90
36586;DHT22;22591;48.314;11.562;2023-05-10T10:10:10;15.00;99.90
36586;DHT22;22591;48.314;11.562;2023-05-10T10:12:38;15.30;99.90
36586;DHT22;22591;48.314;11.562;2023-05-10T10:15:05;15.80;99.90
36586;DHT22;22591;48.314;11.562;2023-05-10T10:17:32;16.30;99.90
36586;DHT22;22591;48.314;11.562;2023-05-10T10:19:58;16.90;99.90
36586;DHT22;22591;48.314;11.562;2023-05-10T10:22:24;17.50;99.90
36586;DHT22;22591;48.314;11.562;2023-05-10T10:24:50;17.80;99.90
36586;DHT22;22591;48.314;11.562;2023-05-10T10:27:45;18.00;99.90
36586;DHT22;22591;48.314;11.562;2023-05-10T10:30:42;17.60;99.90
36586;DHT22;22591;48.314;11.562;2023-05-10T10:33:33;16.80;99.90
36586;DHT22;22591;48.314;11.562;2023-05-10T10:36:02;16.00;99.90
36586;DHT22;22591;48.314;11.562;2023-05-10T10:44:33;15.20;99.90
36586;DHT22;22591;48.314;11.562;2023-05-10T10:49:43;15.40;99.90
36586;DHT22;22591;48.314;11.562;2023-05-10T10:52:25;15.60;99.90
36586;DHT22;22591;48.314;11.562;2023-05-10T10:57:24;16.40;99.90
36586;DHT22;22591;48.314;11.562;2023-05-10T10:59:53;16.60;99.90
36586;DHT22;22591;48.314;11.562;2023-05-10T11:07:59;16.60;99.90
36586;DHT22;22591;48.314;11.562;2023-05-10T11:10:26;16.40;99.90
36586;DHT22;22591;48.314;11.562;2023-05-10T11:13:10;16.60;99.90
36586;DHT22;22591;48.314;11.562;2023-05-10T11:15:37;16.60;99.90
36586;DHT22;22591;48.314;11.562;2023-05-10T11:18:20;16.60;99.90
36586;DHT22;22591;48.314;11.562;2023-05-10T11:21:01;16.90;99.90
36586;DHT22;22591;48.314;11.562;2023-05-10T11:26:09;17.70;99.90
36586;DHT22;22591;48.314;11.562;2023-05-10T11:28:48;17.80;99.90
36586;DHT22;22591;48.314;11.562;2023-05-10T11:31:15;17.60;99.90
36586;DHT22;22591;48.314;11.562;2023-05-10T11:33:52;17.40;99.90
36586;DHT22;22591;48.314;11.562;2023-05-10T11:36:20;17.50;99.90
36586;DHT22;22591;48.314;11.562;2023-05-10T11:38:46;17.60;99.90
36586;DHT22;22591;48.314;11.562;2023-05-10T11:41:12;17.80;99.90
36586;DHT22;22591;48.314;11.562;2023-05-10T11:43:39;17.90;99.90
36586;DHT22;22591;48.314;11.562;2023-05-10T11:46:06;18.20;99.90
36586;DHT22;22591;48.314;11.562;2023-05-10T11:48:32;18.30;99.90
36586;DHT22;22591;48.314;11.562;2023-05-10T11:51:00;18.30;99.90
36586;DHT22;22591;48.314;11.562;2023-05-10T11:53:26;18.20;99.90
36586;DHT22;22591;48.314;11.562;2023-05-10T11:55:52;18.20;99.90
36586;DHT22;22591;48.314;11.562;2023-05-10T11:58:18;18.00;99.90
36586;DHT22;22591;48.314;11.562;2023-05-10T12:00:44;17.80;99.90
36586;DHT22;22591;48.314;11.562;2023-05-10T12:03:11;17.70;99.90
36586;DHT22;22591;48.314;11.562;2023-05-10T12:05:37;17.60;99.90
36586;DHT22;22591;48.314;11.562;2023-05-10T12:08:13;17.50;99.90
36586;DHT22;22591;48.314;11.562;2023-05-10T12:10:38;17.30;99.90
36586;DHT22;22591;48.314;11.562;2023-05-10T12:13:04;17.00;99.90
36586;DHT22;22591;48.314;11.562;2023-05-10T12:15:30;16.70;99.90
36586;DHT22;22591;48.314;11.562;2023-05-10T12:17:56;16.50;99.90
36586;DHT22;22591;48.314;11.562;2023-05-10T12:20:23;16.30;99.90
36586;DHT22;22591;48.314;11.562;2023-05-10T12:22:54;16.00;99.90
36586;DHT22;22591;48.314;11.562;2023-05-10T12:25:21;15.60;99.90
36586;DHT22;22591;48.314;11.562;2023-05-10T12:27:48;15.30;99.90
36586;DHT22;22591;48.314;11.562;2023-05-10T12:30:20;15.00;99.90
36586;DHT22;22591;48.314;11.562;2023-05-10T12:32:46;14.90;99.90
36586;DHT22;22591;48.314;11.562;2023-05-10T12:35:11;14.60;99.90
36586;DHT22;22591;48.314;11.562;2023-05-10T12:37:37;14.30;99.90
36586;DHT22;22591;48.314;11.562;2023-05-10T12:40:08;14.20;99.90
36586;DHT22;22591;48.314;11.562;2023-05-10T12:42:35;14.20;99.90
36586;DHT22;22591;48.314;11.562;2023-05-10T12:45:04;14.10;99.90
36586;DHT22;22591;48.314;11.562;2023-05-10T12:47:31;14.10;99.90
36586;DHT22;22591;48.314;11.562;2023-05-10T12:49:57;14.00;99.90
36586;DHT22;22591;48.314;11.562;2023-05-10T12:52:22;14.00;99.90
36586;DHT22;22591;48.314;11.562;2023-05-10T12:54:48;14.10;99.90
36586;DHT22;22591;48.314;11.562;2023-05-10T12:57:14;14.00;99.90
36586;DHT22;22591;48.314;11.562;2023-05-10T12:59:40;14.10;99.90
36586;DHT22;22591;48.314;11.562;2023-05-10T13:02:06;14.20;99.90
36586;DHT22;22591;48.314;11.562;2023-05-10T13:04:31;14.20;99.90
36586;DHT22;22591;48.314;11.562;2023-05-10T13:06:58;14.00;99.90
36586;DHT22;22591;48.314;11.562;2023-05-10T13:09:27;13.80;99.90
36586;DHT22;22591;48.314;11.562;2023-05-10T13:11:54;13.80;99.90
36586;DHT22;22591;48.314;11.562;2023-05-10T13:14:20;13.90;99.90
36586;DHT22;22591;48.314;11.562;2023-05-10T13:16:46;14.00;99.90
36586;DHT22;22591;48.314;11.562;2023-05-10T13:19:16;14.10;99.90
36586;DHT22;22591;48.314;11.562;2023-05-10T13:21:41;14.30;99.90
36586;DHT22;22591;48.314;11.562;2023-05-10T13:24:07;14.40;99.90
36586;DHT22;22591;48.314;11.562;2023-05-10T13:26:33;14.40;99.90
36586;DHT22;22591;48.314;11.562;2023-05-10T13:28:59;14.30;99.90
36586;DHT22;22591;48.314;11.562;2023-05-10T13:31:24;14.40;99.90
36586;DHT22;22591;48.314;11.562;2023-05-10T13:33:50;14.60;99.90
36586;DHT22;22591;48.314;11.562;2023-05-10T13:36:16;14.70;99.90
36586;DHT22;22591;48.314;11.562;2023-05-10T13:38:41;14.80;99.90
36586;DHT22;22591;48.314;11.562;2023-05-10T13:41:07;14.90;99.90
36586;DHT22;22591;48.314;11.562;2023-05-10T13:43:32;15.10;99.90
36586;DHT22;22591;48.314;11.562;2023-05-10T13:45:58;15.30;99.90
36586;DHT22;22591;48.314;11.562;2023-05-10T13:48:23;15.40;99.90
36586;DHT22;22591;48.314;11.562;2023-05-10T13:50:49;15.50;99.90
36586;DHT22;22591;48.314;11.562;2023-05-10T13:53:14;15.50;99.90
36586;DHT22;22591;48.314;11.562;2023-05-10T13:55:41;15.50;99.90
36586;DHT22;22591;48.314;11.562;2023-05-10T13:58:06;15.50;99.90
36586;DHT22;22591;48.314;11.562;2023-05-10T14:00:32;15.70;99.90
36586;DHT22;22591;48.314;11.562;2023-05-10T14:02:57;15.70;99.90
36586;DHT22;22591;48.314;11.562;2023-05-10T14:05:23;15.70;99.90
36586;DHT22;22591;48.314;11.562;2023-05-10T14:07:49;15.60;99.90
36586;DHT22;22591;48.314;11.562;2023-05-10T14:10:15;15.30;99.90
36586;DHT22;22591;48.314;11.562;2023-05-10T14:12:41;15.20;99.90
36586;DHT22;22591;48.314;11.562;2023-05-10T14:15:07;15.30;99.90
36586;DHT22;22591;48.314;11.562;2023-05-10T14:17:32;15.70;99.90
36586;DHT22;22591;48.314;11.562;2023-05-10T14:19:58;16.00;99.90
36586;DHT22;22591;48.314;11.562;2023-05-10T14:22:23;16.10;99.90
36586;DHT22;22591;48.314;11.562;2023-05-10T14:24:49;16.20;99.90
36586;DHT22;22591;48.314;11.562;2023-05-10T14:27:15;16.20;99.90
36586;DHT22;22591;48.314;11.562;2023-05-10T14:29:41;16.20;99.90
36586;DHT22;22591;48.314;11.562;2023-05-10T14:32:07;16.20;99.90
36586;DHT22;22591;48.314;11.562;2023-05-10T14:34:33;16.20;99.90
36586;DHT22;22591;48.314;11.562;2023-05-10T14:36:58;16.30;99.90
36586;DHT22;22591;48.314;11.562;2023-05-10T14:39:24;16.30;99.90
36586;DHT22;22591;48.314;11.562;2023-05-10T14:41:50;16.30;99.90
36586;DHT22;22591;48.314;11.562;2023-05-10T14:44:17;16.20;99.90
36586;DHT22;22591;48.314;11.562;2023-05-10T14:46:42;16.10;99.90
36586;DHT22;22591;48.314;11.562;2023-05-10T14:49:08;16.30;99.90
36586;DHT22;22591;48.314;11.562;2023-05-10T14:51:33;16.30;99.90
36586;DHT22;22591;48.314;11.562;2023-05-10T14:53:59;16.40;99.90
36586;DHT22;22591;48.314;11.562;2023-05-10T14:56:25;16.40;99.90
36586;DHT22;22591;48.314;11.562;2023-05-10T14:58:51;16.40;99.90
36586;DHT22;22591;48.314;11.562;2023-05-10T15:01:16;16.20;99.90
36586;DHT22;22591;48.314;11.562;2023-05-10T15:03:42;16.20;99.90
36586;DHT22;22591;48.314;11.562;2023-05-10T15:06:08;16.10;99.90
36586;DHT22;22591;48.314;11.562;2023-05-10T15:08:33;16.00;99.90
36586;DHT22;22591;48.314;11.562;2023-05-10T15:10:59;15.90;99.90
36586;DHT22;22591;48.314;11.562;2023-05-10T15:13:25;15.80;99.90
36586;DHT22;22591;48.314;11.562;2023-05-10T15:15:50;15.40;99.90
36586;DHT22;22591;48.314;11.562;2023-05-10T15:18:16;15.30;99.90
36586;DHT22;22591;48.314;11.562;2023-05-10T15:20:41;15.20;99.90
36586;DHT22;22591;48.314;11.562;2023-05-10T15:23:07;15.20;99.90
36586;DHT22;22591;48.314;11.562;2023-05-10T15:25:33;15.20;99.90
36586;DHT22;22591;48.314;11.562;2023-05-10T15:28:03;15.20;99.90
36586;DHT22;22591;48.314;11.562;2023-05-10T15:30:29;15.30;99.90
36586;DHT22;22591;48.314;11.562;2023-05-10T15:32:55;15.50;99.90
36586;DHT22;22591;48.314;11.562;2023-05-10T15:35:20;15.40;99.90
36586;DHT22;22591;48.314;11.562;2023-05-10T15:37:47;15.30;99.90
36586;DHT22;22591;48.314;11.562;2023-05-10T15:40:13;15.10;99.90
36586;DHT22;22591;48.314;11.562;2023-05-10T15:42:38;15.00;99.90
36586;DHT22;22591;48.314;11.562;2023-05-10T15:45:04;14.70;99.90
36586;DHT22;22591;48.314;11.562;2023-05-10T15:47:30;14.60;99.90
36586;DHT22;22591;48.314;11.562;2023-05-10T15:49:56;14.60;99.90
36586;DHT22;22591;48.314;11.562;2023-05-10T15:52:21;14.50;99.90